Time;durP1;ratioP1;P1;durP2;ratioP2;P2;SDS_P1;SDS_P2;PMS_P1;PMS_P2;Temp;Humidity;BMP_temperature;BMP_pressure;BME280_temperature;BME280_humidity;BME280_pressure;Samples;Min_cycle;Max_cycle;Signal;HPM_P1;HPM_P2
2022/01/27 00:07:35;;;;;;;26.88;10.80;;;6.60;99.90;;;;;;5043527;28;20441;-77
2022/01/27 00:10:14;;;;;;;20.52;8.85;;;6.60;99.90;;;;;;5044973;28;20073;-78
2022/01/27 00:12:42;;;;;;;22.63;9.15;;;6.60;99.90;;;;;;5042072;28;20045;-78
2022/01/27 00:15:13;;;;;;;19.80;9.80;;;7.20;99.90;;;;;;5043624;28;20052;-78
2022/01/27 00:17:48;;;;;;;26.27;10.73;;;6.60;99.90;;;;;;5042394;28;20057;-77
2022/01/27 00:20:14;;;;;;;23.58;9.60;;;6.70;99.90;;;;;;5043283;28;20128;-77
2022/01/27 00:22:42;;;;;;;25.77;9.32;;;6.60;99.90;;;;;;5044652;28;20057;-78
2022/01/27 00:25:09;;;;;;;21.20;9.25;;;6.60;99.90;;;;;;5026446;28;20095;-78
2022/01/27 00:27:35;;;;;;;30.70;10.52;;;6.60;99.90;;;;;;5026840;28;20060;-78
2022/01/27 00:30:03;;;;;;;23.77;10.45;;;6.60;99.90;;;;;;5043925;28;20120;-77
2022/01/27 00:32:31;;;;;;;22.75;9.23;;;6.60;99.90;;;;;;5043330;28;20056;-77
2022/01/27 00:34:57;;;;;;;22.90;10.30;;;6.60;99.90;;;;;;5042938;28;20124;-77
2022/01/27 00:37:23;;;;;;;25.92;9.85;;;6.60;99.90;;;;;;5042952;28;20078;-77
2022/01/27 00:39:49;;;;;;;23.48;9.77;;;6.60;99.90;;;;;;5042819;28;20139;-77
2022/01/27 00:42:14;;;;;;;19.08;10.38;;;6.60;99.90;;;;;;5011077;28;20052;-77
2022/01/27 00:44:40;;;;;;;24.30;9.80;;;6.60;99.90;;;;;;5048551;28;20077;-77
2022/01/27 00:47:06;;;;;;;32.22;11.38;;;6.50;99.90;;;;;;5045530;28;20056;-78
2022/01/27 00:49:32;;;;;;;22.50;9.65;;;6.50;99.90;;;;;;4997965;28;20482;-77
2022/01/27 00:52:00;;;;;;;28.38;11.05;;;6.50;99.90;;;;;;5029071;28;20237;-77
2022/01/27 00:54:28;;;;;;;26.75;10.23;;;6.50;99.90;;;;;;5029780;28;20041;-77
2022/01/27 00:59:53;;;;;;;26.70;10.20;;;5.60;99.90;;;;;;5046168;28;20448;-77
2022/01/27 01:07:35;;;;;;;21.63;8.90;;;6.40;99.90;;;;;;5046258;28;20092;-77
2022/01/27 01:15:05;;;;;;;20.77;10.18;;;6.40;99.90;;;;;;5046780;28;20049;-77
2022/01/27 01:17:41;;;;;;;20.58;10.13;;;6.60;99.90;;;;;;5030178;28;20041;-77
2022/01/27 01:20:24;;;;;;;28.88;10.77;;;6.40;99.90;;;;;;5046443;28;20418;-77
2022/01/27 01:36:44;;;;;;;27.30;11.10;;;6.30;99.90;;;;;;5046340;28;20057;-78
2022/01/27 01:39:12;;;;;;;28.63;12.10;;;6.20;99.90;;;;;;5044988;28;20049;-78
2022/01/27 01:41:38;;;;;;;18.63;10.32;;;6.20;99.90;;;;;;5028796;28;20099;-78
2022/01/27 01:44:04;;;;;;;29.77;12.10;;;6.20;99.90;;;;;;5028997;28;20041;-78
2022/01/27 01:46:30;;;;;;;21.63;10.38;;;6.20;99.90;;;;;;5044633;28;20049;-78
2022/01/27 01:48:56;;;;;;;19.40;10.38;;;6.20;99.90;;;;;;5045945;28;20488;-77
2022/01/27 01:51:27;;;;;;;31.40;11.43;;;6.20;99.90;;;;;;5043930;28;20041;-77
2022/01/27 01:53:54;;;;;;;30.20;11.32;;;6.20;99.90;;;;;;5028696;28;20045;-78
2022/01/27 01:56:20;;;;;;;24.17;11.45;;;6.20;99.90;;;;;;5012340;28;20106;-77
2022/01/27 01:58:46;;;;;;;28.80;11.90;;;6.20;99.90;;;;;;5045582;28;20056;-78
2022/01/27 02:01:12;;;;;;;22.65;10.95;;;6.30;99.90;;;;;;5046721;28;20556;-77
2022/01/27 02:03:38;;;;;;;21.70;11.88;;;6.20;99.90;;;;;;5045877;28;20037;-77
2022/01/27 02:06:04;;;;;;;27.13;11.98;;;6.20;99.90;;;;;;5028771;28;20402;-77
2022/01/27 02:19:13;;;;;;;24.95;12.20;;;6.10;99.90;;;;;;5045733;28;20147;-77
2022/01/27 02:21:43;;;;;;;27.88;11.40;;;6.10;99.90;;;;;;5043847;28;20080;-76
2022/01/27 02:24:09;;;;;;;28.55;12.90;;;6.10;99.90;;;;;;5045293;28;20441;-77
2022/01/27 02:26:34;;;;;;;20.98;11.38;;;6.10;99.90;;;;;;5027615;28;20053;-77
2022/01/27 02:29:00;;;;;;;35.22;12.45;;;6.20;99.90;;;;;;5044443;28;20068;-77
2022/01/27 02:31:26;;;;;;;21.58;11.55;;;6.40;99.90;;;;;;5028380;28;20044;-77
2022/01/27 02:33:58;;;;;;;33.88;12.35;;;6.20;99.90;;;;;;5045020;28;20037;-77
2022/01/27 02:36:23;;;;;;;28.52;12.30;;;6.10;99.90;;;;;;5046340;28;20044;-77
2022/01/27 02:38:49;;;;;;;27.92;14.05;;;6.20;99.90;;;;;;5043497;28;20410;-77
2022/01/27 02:41:16;;;;;;;28.73;13.63;;;6.20;99.90;;;;;;5046113;28;20138;-77
2022/01/27 02:43:42;;;;;;;28.85;13.52;;;6.20;99.90;;;;;;5044249;28;20052;-77
2022/01/27 02:46:09;;;;;;;29.80;13.30;;;6.20;99.90;;;;;;5044148;28;20041;-76
2022/01/27 02:48:36;;;;;;;35.55;13.65;;;6.20;99.90;;;;;;5027940;28;20056;-77
2022/01/27 02:51:01;;;;;;;29.55;13.65;;;6.20;99.90;;;;;;5044834;28;20527;-77
2022/01/27 02:53:27;;;;;;;27.15;13.10;;;6.20;99.90;;;;;;5045695;28;20124;-77
2022/01/27 02:55:53;;;;;;;32.83;12.65;;;6.20;99.90;;;;;;5044703;28;20049;-77
2022/01/27 02:58:18;;;;;;;30.77;13.70;;;6.20;99.90;;;;;;5045860;28;20481;-76
2022/01/27 03:00:44;;;;;;;30.00;13.55;;;6.20;99.90;;;;;;5043644;28;20045;-76
2022/01/27 03:03:10;;;;;;;28.45;12.65;;;6.20;99.90;;;;;;5044936;28;20056;-76
2022/01/27 03:05:35;;;;;;;29.25;14.15;;;6.20;99.90;;;;;;5027606;28;20478;-76
2022/01/27 03:08:01;;;;;;;31.25;14.60;;;6.20;99.90;;;;;;5026215;28;20052;-77
2022/01/27 03:10:30;;;;;;;27.00;13.73;;;6.20;99.90;;;;;;5046097;28;20102;-76
2022/01/27 03:12:59;;;;;;;30.08;13.88;;;6.20;99.90;;;;;;5043433;28;20426;-77
2022/01/27 03:15:28;;;;;;;33.17;14.63;;;6.60;99.90;;;;;;5043859;28;20041;-76
2022/01/27 03:17:54;;;;;;;28.25;13.30;;;6.30;99.90;;;;;;5043394;28;20503;-76
2022/01/27 03:20:20;;;;;;;33.92;14.32;;;6.30;99.90;;;;;;5043098;28;20091;-77
2022/01/27 03:22:46;;;;;;;31.38;12.95;;;6.30;99.90;;;;;;5044366;28;20037;-77
2022/01/27 03:25:12;;;;;;;33.83;13.95;;;6.30;99.90;;;;;;5043057;28;20456;-77
2022/01/27 03:27:44;;;;;;;27.23;14.00;;;6.30;99.90;;;;;;5043886;28;20060;-76
2022/01/27 03:30:10;;;;;;;21.13;11.07;;;6.40;99.90;;;;;;5011311;28;20045;-76
2022/01/27 03:32:36;;;;;;;30.15;13.98;;;6.30;99.90;;;;;;5027539;28;20060;-77
2022/01/27 03:35:03;;;;;;;30.48;13.88;;;6.30;99.90;;;;;;5043775;28;20049;-76
2022/01/27 03:37:28;;;;;;;30.30;13.82;;;6.30;99.90;;;;;;5043468;28;20041;-76
2022/01/27 03:39:54;;;;;;;32.03;14.50;;;6.30;99.90;;;;;;5044063;28;20056;-76
2022/01/27 03:42:20;;;;;;;28.20;12.23;;;7.30;99.90;;;;;;5026231;28;20052;-76
2022/01/27 03:44:46;;;;;;;25.38;13.00;;;6.60;99.90;;;;;;5043429;28;20114;-76
2022/01/27 03:47:11;;;;;;;26.92;11.80;;;6.40;99.90;;;;;;5042279;28;20055;-76
2022/01/27 03:49:37;;;;;;;29.25;13.77;;;6.40;99.90;;;;;;5045000;28;20398;-76
2022/01/27 03:52:03;;;;;;;29.38;13.35;;;6.40;99.90;;;;;;5044581;28;20045;-76
2022/01/27 03:54:32;;;;;;;26.77;11.77;;;6.40;99.90;;;;;;5044299;28;20072;-76
2022/01/27 03:56:59;;;;;;;28.83;11.65;;;6.40;99.90;;;;;;5045144;28;20139;-76
2022/01/27 03:59:26;;;;;;;27.48;12.00;;;6.40;99.90;;;;;;5043774;28;20084;-76
2022/01/27 04:01:53;;;;;;;33.78;13.10;;;6.40;99.90;;;;;;5010585;28;20052;-76
2022/01/27 04:04:18;;;;;;;33.38;14.15;;;7.70;99.90;;;;;;5042743;28;20436;-77
2022/01/27 04:06:44;;;;;;;33.92;12.95;;;6.60;99.90;;;;;;5043146;28;20045;-77
2022/01/27 04:09:11;;;;;;;24.77;11.70;;;6.40;99.90;;;;;;5042783;28;20041;-76
2022/01/27 04:11:39;;;;;;;26.67;13.00;;;6.40;99.90;;;;;;5042675;28;20041;-77
2022/01/27 04:14:05;;;;;;;33.75;12.73;;;6.40;99.90;;;;;;5044765;28;20538;-77
2022/01/27 04:16:31;;;;;;;35.75;12.65;;;6.40;99.90;;;;;;5043631;28;20045;-77
2022/01/27 04:18:56;;;;;;;32.83;13.73;;;6.40;99.90;;;;;;5047696;28;20114;-77
2022/01/27 04:21:22;;;;;;;28.17;11.48;;;6.40;99.90;;;;;;5047423;28;20055;-77
2022/01/27 04:23:50;;;;;;;23.70;12.73;;;6.40;99.90;;;;;;5031137;28;20049;-77
2022/01/27 04:26:19;;;;;;;35.15;13.00;;;6.40;99.90;;;;;;5029920;28;20048;-77
2022/01/27 04:28:46;;;;;;;28.50;11.93;;;6.50;99.90;;;;;;5046244;28;20057;-77
2022/01/27 04:31:12;;;;;;;30.60;11.60;;;6.50;99.90;;;;;;5030735;28;20103;-77
2022/01/27 04:33:39;;;;;;;26.48;11.18;;;6.50;99.90;;;;;;5046207;28;20057;-77
2022/01/27 04:36:14;;;;;;;35.30;13.10;;;6.50;99.90;;;;;;5047014;28;20048;-77
2022/01/27 04:38:53;;;;;;;32.05;11.88;;;6.50;99.90;;;;;;5029503;28;20037;-77
2022/01/27 04:41:31;;;;;;;28.75;12.15;;;6.50;99.90;;;;;;5046584;28;20052;-77
2022/01/27 04:44:27;;;;;;;25.05;11.77;;;6.50;99.90;;;;;;5046772;28;20049;-77
2022/01/27 04:47:00;;;;;;;26.10;11.38;;;6.50;99.90;;;;;;5045352;28;20049;-77
2022/01/27 04:49:26;;;;;;;23.35;11.15;;;6.70;99.90;;;;;;5016202;28;20037;-77
2022/01/27 04:51:52;;;;;;;29.35;12.55;;;6.50;99.90;;;;;;5046385;28;20056;-76
2022/01/27 04:54:28;;;;;;;24.98;10.32;;;6.50;99.90;;;;;;5029454;28;20410;-76
2022/01/27 04:56:58;;;;;;;29.48;11.00;;;6.50;99.90;;;;;;5047860;28;20517;-76
2022/01/27 04:59:28;;;;;;;31.67;11.27;;;6.50;99.90;;;;;;5047050;28;20037;-76
2022/01/27 05:02:04;;;;;;;27.05;11.00;;;6.50;99.90;;;;;;5046788;28;20049;-76
2022/01/27 05:04:32;;;;;;;30.30;10.75;;;6.50;99.90;;;;;;5045744;28;20053;-76
2022/01/27 05:06:58;;;;;;;25.27;11.52;;;6.50;99.90;;;;;;5046470;28;20067;-77
2022/01/27 05:09:24;;;;;;;27.15;11.32;;;6.50;99.90;;;;;;5047926;28;20478;-77
2022/01/27 05:11:55;;;;;;;28.35;9.52;;;6.40;99.90;;;;;;5045289;28;20052;-77
2022/01/27 05:14:23;;;;;;;27.23;10.35;;;6.40;99.90;;;;;;5048063;28;20041;-78
2022/01/27 05:16:50;;;;;;;24.27;10.38;;;6.40;99.90;;;;;;5045532;28;20457;-77
2022/01/27 05:19:16;;;;;;;30.15;11.23;;;6.40;99.90;;;;;;5047357;28;20494;-78
2022/01/27 05:21:42;;;;;;;26.08;11.40;;;7.90;99.90;;;;;;5047112;28;20048;-78
2022/01/27 05:24:08;;;;;;;26.30;10.93;;;6.40;99.90;;;;;;5045614;28;20048;-78
2022/01/27 05:26:35;;;;;;;30.17;11.02;;;6.40;99.90;;;;;;5046313;28;20045;-77
2022/01/27 05:29:05;;;;;;;31.80;11.43;;;6.40;99.90;;;;;;5043571;28;20041;-78
2022/01/27 05:31:31;;;;;;;35.80;11.35;;;6.40;99.90;;;;;;5046546;28;20333;-78
2022/01/27 05:33:57;;;;;;;26.60;10.27;;;7.20;99.90;;;;;;5045261;28;20080;-78
2022/01/27 05:36:23;;;;;;;25.33;11.30;;;6.50;99.90;;;;;;5029168;28;20062;-78
2022/01/27 05:38:48;;;;;;;28.67;10.57;;;6.40;99.90;;;;;;5028974;28;20053;-78
2022/01/27 05:41:15;;;;;;;27.42;11.18;;;6.30;99.90;;;;;;5047006;28;20037;-78
2022/01/27 05:43:41;;;;;;;32.38;11.63;;;6.30;99.90;;;;;;5046190;28;20110;-78
2022/01/27 05:46:07;;;;;;;28.15;10.98;;;7.40;99.90;;;;;;5046306;28;20428;-77
2022/01/27 05:48:33;;;;;;;26.70;10.45;;;6.30;99.90;;;;;;5047334;28;20357;-78
2022/01/27 05:50:59;;;;;;;31.85;11.23;;;6.30;99.90;;;;;;5044866;28;20361;-78
2022/01/27 05:53:25;;;;;;;27.30;10.30;;;6.40;99.90;;;;;;5047545;28;20040;-78
2022/01/27 05:55:51;;;;;;;29.88;10.25;;;6.40;99.90;;;;;;5028467;28;20053;-78
2022/01/27 05:58:16;;;;;;;23.33;9.50;;;6.40;99.90;;;;;;5046694;28;20601;-78
2022/01/27 06:00:42;;;;;;;29.05;8.90;;;6.40;99.90;;;;;;5045530;28;20045;-78
2022/01/27 06:03:08;;;;;;;24.30;9.88;;;6.40;99.90;;;;;;5044934;28;20049;-78
2022/01/27 06:05:34;;;;;;;26.95;9.68;;;6.40;99.90;;;;;;5045991;28;20430;-78
2022/01/27 06:07:59;;;;;;;23.92;8.75;;;6.40;99.90;;;;;;5044192;28;20477;-79
2022/01/27 06:10:25;;;;;;;20.60;9.07;;;7.40;99.90;;;;;;5012499;28;20083;-78
2022/01/27 06:12:53;;;;;;;28.20;9.80;;;6.40;99.90;;;;;;5027844;28;20045;-78
2022/01/27 06:15:20;;;;;;;24.95;9.60;;;6.40;99.90;;;;;;5044832;28;20144;-78
2022/01/27 06:17:47;;;;;;;33.97;10.38;;;6.40;99.90;;;;;;5028005;28;20041;-77
2022/01/27 06:20:14;;;;;;;26.23;9.48;;;6.40;99.90;;;;;;5011274;28;20094;-78
2022/01/27 06:22:40;;;;;;;21.77;9.68;;;6.40;99.90;;;;;;5045139;28;20103;-78
2022/01/27 06:25:08;;;;;;;27.25;9.45;;;6.50;99.90;;;;;;5010999;28;20094;-78
2022/01/27 06:27:34;;;;;;;21.52;8.35;;;6.50;99.90;;;;;;5046377;28;20120;-78
2022/01/27 06:29:59;;;;;;;24.20;8.88;;;6.50;99.90;;;;;;5045747;28;20540;-78
2022/01/27 06:32:25;;;;;;;26.15;9.80;;;6.50;99.90;;;;;;5045159;28;20045;-79
2022/01/27 06:34:51;;;;;;;26.55;8.77;;;6.50;99.90;;;;;;5028048;28;20366;-79
2022/01/27 06:37:16;;;;;;;20.27;8.55;;;6.60;99.90;;;;;;5010815;28;20398;-78
2022/01/27 06:39:42;;;;;;;25.40;9.32;;;6.60;99.90;;;;;;5043667;28;20053;-78
2022/01/27 06:42:08;;;;;;;23.83;9.45;;;6.60;99.90;;;;;;5043462;28;20136;-79
2022/01/27 06:44:34;;;;;;;19.50;8.57;;;6.90;99.90;;;;;;5044250;28;20080;-79
2022/01/27 06:47:01;;;;;;;25.52;8.63;;;6.60;99.90;;;;;;5043444;28;20556;-80
2022/01/27 06:49:26;;;;;;;21.55;7.30;;;6.60;99.90;;;;;;5028383;28;20620;-79
2022/01/27 06:51:52;;;;;;;22.58;8.82;;;6.60;99.90;;;;;;5044094;28;20045;-79
2022/01/27 06:54:18;;;;;;;26.83;8.70;;;7.50;99.90;;;;;;5010683;28;20048;-80
2022/01/27 06:56:45;;;;;;;26.50;9.38;;;8.10;99.90;;;;;;5045565;28;20044;-78
2022/01/27 06:59:11;;;;;;;22.50;9.10;;;6.70;99.90;;;;;;5044944;28;20094;-78
2022/01/27 07:01:39;;;;;;;24.48;8.55;;;6.70;99.90;;;;;;5044548;28;20099;-78
2022/01/27 07:04:05;;;;;;;27.45;8.43;;;6.80;99.90;;;;;;5043226;28;20044;-79
2022/01/27 07:06:32;;;;;;;24.02;8.40;;;6.70;99.90;;;;;;5044182;28;20718;-79
2022/01/27 07:08:58;;;;;;;29.17;8.63;;;6.70;99.90;;;;;;5011205;28;20129;-80
2022/01/27 07:11:23;;;;;;;20.10;7.75;;;6.80;99.90;;;;;;5044607;28;20207;-81
2022/01/27 07:13:49;;;;;;;16.52;7.85;;;6.80;99.90;;;;;;5045649;28;20063;-79
2022/01/27 07:16:15;;;;;;;23.52;7.68;;;6.80;99.90;;;;;;5043470;28;20041;-79
2022/01/27 07:18:41;;;;;;;18.95;7.60;;;6.80;99.90;;;;;;5027880;28;20175;-78
2022/01/27 07:21:07;;;;;;;15.85;6.90;;;6.80;99.90;;;;;;5043165;28;20509;-83
2022/01/27 07:23:33;;;;;;;19.83;7.00;;;6.80;99.90;;;;;;5027631;28;20128;-83
2022/01/27 07:25:59;;;;;;;20.20;7.78;;;6.80;99.90;;;;;;5043544;28;20514;-86
2022/01/27 07:28:25;;;;;;;20.88;6.78;;;7.20;99.90;;;;;;5042424;28;20032;-85
2022/01/27 07:30:51;;;;;;;22.70;8.23;;;6.90;99.90;;;;;;5044017;28;20398;-80
2022/01/27 07:33:16;;;;;;;16.92;7.07;;;6.90;99.90;;;;;;5042772;28;20482;-82
2022/01/27 07:35:42;;;;;;;23.05;6.78;;;7.90;99.90;;;;;;5043892;28;20425;-80
2022/01/27 07:38:08;;;;;;;24.02;7.15;;;6.90;99.90;;;;;;5025856;28;20045;-81
2022/01/27 07:40:34;;;;;;;20.42;6.82;;;6.90;99.90;;;;;;5043497;28;20044;-81
2022/01/27 07:43:00;;;;;;;22.63;7.80;;;6.90;99.90;;;;;;5043404;28;20041;-80
2022/01/27 07:45:26;;;;;;;22.42;7.57;;;7.20;99.90;;;;;;5044037;28;20057;-80
2022/01/27 07:47:52;;;;;;;23.98;7.15;;;7.00;99.90;;;;;;5027227;28;20389;-81
2022/01/27 07:50:18;;;;;;;20.73;8.07;;;7.10;99.90;;;;;;5043654;28;20037;-81
2022/01/27 07:52:44;;;;;;;16.90;7.00;;;7.20;99.90;;;;;;5042849;28;20044;-81
2022/01/27 07:55:10;;;;;;;21.40;7.80;;;7.20;99.90;;;;;;5043786;28;20048;-81
2022/01/27 07:57:37;;;;;;;26.45;7.18;;;7.20;99.90;;;;;;5043273;28;20045;-82
2022/01/27 08:00:07;;;;;;;35.30;7.03;;;7.20;99.90;;;;;;5044369;28;20486;-81
2022/01/27 08:02:33;;;;;;;22.90;8.40;;;7.30;99.90;;;;;;5044296;28;20045;-82
2022/01/27 08:04:58;;;;;;;23.27;6.78;;;7.30;99.90;;;;;;5044904;28;20044;-81
2022/01/27 08:07:24;;;;;;;26.00;8.05;;;7.30;99.90;;;;;;5043846;28;20071;-80
2022/01/27 08:09:50;;;;;;;30.02;7.82;;;8.70;99.90;;;;;;5044410;28;20402;-80
2022/01/27 08:12:16;;;;;;;23.02;6.13;;;7.40;99.90;;;;;;5044041;28;20045;-80
2022/01/27 08:14:42;;;;;;;17.83;6.13;;;7.40;99.90;;;;;;5044811;28;20043;-80
2022/01/27 08:17:07;;;;;;;17.85;6.40;;;7.40;99.90;;;;;;5044175;28;20489;-80
2022/01/27 08:19:33;;;;;;;19.85;6.72;;;7.50;99.90;;;;;;5044077;28;20033;-80
2022/01/27 08:21:59;;;;;;;23.35;7.03;;;7.50;99.90;;;;;;5044488;28;20063;-80
2022/01/27 08:24:25;;;;;;;23.98;7.53;;;7.50;99.90;;;;;;5042045;28;20053;-81
2022/01/27 08:26:57;;;;;;;19.92;6.22;;;7.50;99.90;;;;;;5044187;28;20136;-82
2022/01/27 08:29:30;;;;;;;25.55;6.03;;;7.50;99.90;;;;;;5026248;28;20498;-83
2022/01/27 08:34:31;;;;;;;19.42;5.97;;;7.70;99.90;;;;;;5042228;28;20041;-82
2022/01/27 08:37:11;;;;;;;25.08;4.90;;;7.20;99.90;;;;;;5043026;28;20044;-83
2022/01/27 08:39:38;;;;;;;15.63;4.88;;;7.70;99.90;;;;;;5026643;28;20092;-80
2022/01/27 08:42:06;;;;;;;21.88;6.13;;;7.80;99.90;;;;;;5043365;28;20383;-82
2022/01/27 08:44:32;;;;;;;17.30;5.22;;;7.80;99.90;;;;;;5044155;28;20053;-81
2022/01/27 08:46:58;;;;;;;21.88;4.90;;;7.80;99.90;;;;;;5025908;28;20494;-83
2022/01/27 08:49:26;;;;;;;15.45;5.05;;;9.00;99.90;;;;;;5043588;28;20044;-79
2022/01/27 08:51:53;;;;;;;22.58;4.60;;;7.80;99.90;;;;;;5043220;28;20107;-78
2022/01/27 08:54:19;;;;;;;22.33;5.22;;;7.80;99.90;;;;;;5025177;28;20041;-80
2022/01/27 08:56:45;;;;;;;20.83;5.25;;;7.90;99.90;;;;;;5042737;28;20045;-79
2022/01/27 08:59:10;;;;;;;16.60;5.25;;;7.90;99.90;;;;;;5042034;28;20521;-79
2022/01/27 09:01:37;;;;;;;20.42;4.40;;;7.90;99.90;;;;;;5044465;28;20114;-79
2022/01/27 09:04:04;;;;;;;18.77;4.88;;;7.90;99.90;;;;;;5045704;28;20072;-79
2022/01/27 09:06:30;;;;;;;12.40;4.43;;;7.90;99.90;;;;;;5029662;28;20053;-79
2022/01/27 09:08:57;;;;;;;14.77;3.58;;;7.90;99.90;;;;;;5047782;28;20040;-80
2022/01/27 09:11:23;;;;;;;29.13;4.07;;;7.90;99.90;;;;;;5045432;28;20098;-79
2022/01/27 09:13:51;;;;;;;17.70;4.00;;;8.00;99.90;;;;;;5046785;28;20099;-79
2022/01/27 09:16:18;;;;;;;15.00;3.60;;;9.30;99.90;;;;;;5028764;28;20048;-79
2022/01/27 09:18:44;;;;;;;25.10;4.32;;;8.10;99.90;;;;;;5029717;28;20051;-80
2022/01/27 09:21:17;;;;;;;10.75;3.60;;;8.10;99.90;;;;;;5028747;28;20136;-80
2022/01/27 09:23:42;;;;;;;15.88;3.85;;;8.10;99.90;;;;;;5046284;28;20546;-80
2022/01/27 09:26:26;;;;;;;14.05;3.70;;;8.10;99.90;;;;;;5045915;28;20084;-79
2022/01/27 09:28:51;;;;;;;;;;;8.10;99.90;;;;;;5046142;28;20053;-79
2022/01/27 09:31:17;;;;;;;12.73;3.13;;;8.20;99.90;;;;;;5046474;28;20273;-79
2022/01/27 09:33:43;;;;;;;22.00;4.22;;;8.30;99.90;;;;;;5046805;28;20051;-80
2022/01/27 09:36:12;;;;;;;16.30;3.25;;;8.30;99.90;;;;;;5029554;28;20406;-80
2022/01/27 09:38:38;;;;;;;15.82;2.67;;;8.30;99.90;;;;;;5045741;28;20056;-80
2022/01/27 09:41:07;;;;;;;16.85;4.07;;;8.30;99.90;;;;;;5045324;28;20534;-80
2022/01/27 09:43:34;;;;;;;24.10;3.55;;;8.30;99.90;;;;;;5046750;28;20037;-80
2022/01/27 09:46:04;;;;;;;24.90;4.05;;;8.40;99.90;;;;;;5045754;28;20486;-80
2022/01/27 09:48:36;;;;;;;10.23;2.85;;;8.40;99.90;;;;;;5045339;28;20072;-80
2022/01/27 09:51:39;;;;;;;13.75;3.05;;;8.40;99.90;;;;;;5045212;28;20603;-81
2022/01/27 09:53:56;;;;;;;20.92;2.97;;;8.50;99.90;;;;;;5042440;28;20045;-80
2022/01/27 09:56:23;;;;;;;19.48;2.97;;;8.50;99.90;;;;;;5045367;28;20045;-81
2022/01/27 09:58:49;;;;;;;17.52;3.35;;;8.50;99.90;;;;;;5028517;28;20045;-80
2022/01/27 10:01:15;;;;;;;14.82;2.83;;;8.50;99.90;;;;;;5028944;28;20049;-79
2022/01/27 10:03:59;;;;;;;30.45;3.47;;;8.60;99.90;;;;;;5044218;28;20044;-79
2022/01/27 10:06:32;;;;;;;;;;;8.60;99.90;;;;;;5047132;28;20467;-79
2022/01/27 10:09:14;;;;;;;21.65;2.90;;;8.60;99.90;;;;;;5045451;28;20003;-79
2022/01/27 10:11:40;;;;;;;12.40;2.72;;;8.60;99.90;;;;;;5045826;28;20079;-78
2022/01/27 10:14:35;;;;;;;13.82;2.60;;;9.60;99.90;;;;;;5046480;28;20498;-78
2022/01/27 10:17:03;;;;;;;17.77;2.90;;;8.60;99.90;;;;;;5046140;28;20103;-79
2022/01/27 10:19:30;;;;;;;20.75;2.58;;;8.60;99.90;;;;;;5045801;28;20090;-79
2022/01/27 10:22:01;;;;;;;17.42;3.17;;;8.70;99.90;;;;;;5045011;28;20044;-79
2022/01/27 10:24:30;;;;;;;20.05;3.00;;;8.70;99.90;;;;;;5043760;28;20057;-79
2022/01/27 10:27:24;;;;;;;20.20;2.75;;;8.70;99.90;;;;;;5044676;28;20438;-79
2022/01/27 10:32:44;;;;;;;11.70;3.47;;;8.70;99.90;;;;;;5028333;28;20049;-80
2022/01/27 10:35:12;;;;;;;16.45;2.83;;;8.80;99.90;;;;;;5027764;28;20049;-80
2022/01/27 10:38:06;;;;;;;17.25;2.85;;;8.80;99.90;;;;;;5043780;28;20099;-79
2022/01/27 10:40:44;;;;;;;13.38;2.47;;;8.90;99.90;;;;;;5045933;28;20052;-79
2022/01/27 10:43:21;;;;;;;12.73;2.20;;;9.00;99.90;;;;;;5044027;28;20056;-81
2022/01/27 10:46:26;;;;;;;10.88;1.95;;;9.00;99.90;;;;;;5043478;28;20041;-80
2022/01/27 10:51:28;;;;;;;17.60;2.88;;;9.10;99.90;;;;;;5044059;28;20053;-79
2022/01/27 10:56:30;;;;;;;13.85;2.72;;;9.70;99.90;;;;;;5045342;28;20502;-79
2022/01/27 10:58:58;;;;;;;11.77;2.70;;;9.10;99.90;;;;;;5045069;28;20041;-79
2022/01/27 11:01:28;;;;;;;14.23;2.95;;;9.10;99.90;;;;;;5044935;28;20580;-78
2022/01/27 11:03:57;;;;;;;18.80;2.88;;;9.10;99.90;;;;;;5045023;28;20120;-78
2022/01/27 11:06:25;;;;;;;13.05;2.58;;;9.20;99.90;;;;;;5045363;28;20041;-78
2022/01/27 11:08:54;;;;;;;22.60;2.53;;;9.20;99.90;;;;;;5045632;28;20044;-78
2022/01/27 11:11:26;;;;;;;10.95;2.55;;;9.20;99.90;;;;;;5044384;28;20045;-79
2022/01/27 11:13:54;;;;;;;17.17;2.15;;;9.50;99.90;;;;;;5044491;28;20053;-79
2022/01/27 11:16:29;;;;;;;16.15;2.42;;;9.20;99.90;;;;;;5044743;28;20414;-78
2022/01/27 11:19:13;;;;;;;16.42;2.67;;;9.60;99.90;;;;;;5044046;28;20191;-78
2022/01/27 11:21:43;;;;;;;17.02;2.75;;;9.30;99.90;;;;;;5045549;28;20041;-79
2022/01/27 11:24:23;;;;;;;12.30;2.55;;;9.20;99.90;;;;;;5044322;28;20049;-79
2022/01/27 11:26:53;;;;;;;13.23;2.53;;;9.30;99.90;;;;;;5043096;28;20047;-78
2022/01/27 11:29:21;;;;;;;16.60;2.63;;;9.30;99.90;;;;;;5043648;28;20080;-79
2022/01/27 11:32:22;;;;;;;14.00;2.33;;;9.30;99.90;;;;;;5045536;28;20049;-79
2022/01/27 11:34:52;;;;;;;24.88;2.80;;;9.40;99.90;;;;;;5039845;28;20048;-79
2022/01/27 11:37:33;;;;;;;29.60;2.92;;;9.40;99.90;;;;;;5044575;28;20033;-79
2022/01/27 11:40:12;;;;;;;16.85;2.45;;;9.40;99.90;;;;;;5043647;28;20037;-78
2022/01/27 11:42:37;;;;;;;27.75;2.88;;;9.40;99.90;;;;;;5044805;28;20402;-78
2022/01/27 11:45:24;;;;;;;18.13;2.80;;;9.40;99.90;;;;;;5044038;28;20053;-81
2022/01/27 11:48:09;;;;;;;28.00;3.13;;;9.30;99.90;;;;;;5044758;28;20106;-80
2022/01/27 11:50:49;;;;;;;21.10;2.53;;;9.40;99.90;;;;;;5044433;28;20435;-79
2022/01/27 11:53:44;;;;;;;22.65;3.22;;;9.40;99.90;;;;;;5043202;28;20529;-80
2022/01/27 11:56:30;;;;;;;20.83;2.33;;;9.40;99.90;;;;;;5017727;28;20088;-79
2022/01/27 11:58:56;;;;;;;25.77;2.88;;;9.40;99.90;;;;;;5025682;28;20053;-79
2022/01/27 12:01:27;;;;;;;19.02;2.30;;;9.40;99.90;;;;;;5043219;28;20041;-79
2022/01/27 12:04:05;;;;;;;16.10;2.50;;;9.40;99.90;;;;;;5026146;28;20490;-80
2022/01/27 12:06:33;;;;;;;18.35;2.30;;;9.40;99.90;;;;;;5025217;28;20049;-79
2022/01/27 12:09:20;;;;;;;17.80;2.92;;;9.40;99.90;;;;;;5026021;28;20120;-79
2022/01/27 12:11:55;;;;;;;23.55;3.20;;;9.40;99.90;;;;;;5040967;28;20037;-79
2022/01/27 12:14:23;;;;;;;18.85;2.80;;;9.50;99.90;;;;;;5026834;28;20049;-77
2022/01/27 12:17:07;;;;;;;15.90;2.13;;;9.50;99.90;;;;;;5044572;28;20465;-77
2022/01/27 12:19:51;;;;;;;19.05;2.88;;;9.50;99.90;;;;;;5044334;28;20099;-78
2022/01/27 12:22:17;;;;;;;18.90;2.83;;;9.50;99.90;;;;;;5044379;28;20439;-76
2022/01/27 12:24:55;;;;;;;18.55;3.15;;;9.50;99.90;;;;;;5042639;28;20053;-77
2022/01/27 12:27:22;;;;;;;23.55;3.30;;;9.50;99.90;;;;;;5043360;28;20052;-76
2022/01/27 12:29:53;;;;;;;14.00;2.55;;;9.50;99.90;;;;;;5042849;28;20049;-76
2022/01/27 12:32:25;;;;;;;27.90;3.25;;;9.50;99.90;;;;;;5043931;28;20137;-78
2022/01/27 12:34:54;;;;;;;13.60;2.33;;;9.50;99.90;;;;;;5044468;28;20091;-77
2022/01/27 12:37:23;;;;;;;16.50;1.85;;;9.50;99.90;;;;;;5042770;28;20091;-78
2022/01/27 12:39:52;;;;;;;20.92;2.22;;;9.50;99.90;;;;;;5047817;28;20517;-76
2022/01/27 12:42:19;;;;;;;14.80;2.45;;;9.50;99.90;;;;;;5046567;28;20053;-77
2022/01/27 12:45:02;;;;;;;23.17;3.10;;;9.60;99.90;;;;;;5047917;28;20056;-77
2022/01/27 12:47:30;;;;;;;15.75;2.22;;;9.50;99.90;;;;;;5047668;28;20045;-77
2022/01/27 12:50:07;;;;;;;20.88;3.33;;;9.50;99.90;;;;;;5047387;28;20100;-78
2022/01/27 12:52:41;;;;;;;15.38;2.03;;;10.40;99.90;;;;;;5046980;28;20099;-78
2022/01/27 12:55:12;;;;;;;24.98;3.67;;;9.60;99.90;;;;;;5046735;28;20144;-78
2022/01/27 12:57:40;;;;;;;19.85;3.38;;;9.60;99.90;;;;;;5047576;28;20075;-79
2022/01/27 13:00:09;;;;;;;21.75;2.47;;;9.60;99.90;;;;;;5047931;28;20114;-77
2022/01/27 13:02:34;;;;;;;18.25;2.28;;;9.60;99.90;;;;;;5046066;28;20525;-77
2022/01/27 13:05:02;;;;;;;18.27;2.75;;;9.60;99.90;;;;;;5046472;28;20711;-78
2022/01/27 13:07:28;;;;;;;28.95;3.28;;;9.50;99.90;;;;;;5029122;28;20044;-75
2022/01/27 13:10:11;;;;;;;19.50;2.92;;;9.50;99.90;;;;;;5046711;28;20049;-77
2022/01/27 13:15:13;;;;;;;17.70;2.67;;;9.50;99.90;;;;;;5045999;28;20506;-77
2022/01/27 13:17:52;;;;;;;21.45;3.10;;;9.40;99.90;;;;;;5029470;28;20063;-77
2022/01/27 13:20:29;;;;;;;14.18;2.38;;;9.40;99.90;;;;;;5046169;28;20048;-76
2022/01/27 13:23:06;;;;;;;22.05;3.10;;;9.40;99.90;;;;;;5046777;28;20045;-78
2022/01/27 13:25:40;;;;;;;11.93;2.03;;;9.50;99.90;;;;;;5046325;28;20565;-78
2022/01/27 13:28:32;;;;;;;13.60;2.05;;;10.40;99.90;;;;;;5045117;28;20053;-79
2022/01/27 13:31:04;;;;;;;14.80;2.53;;;9.30;99.90;;;;;;5029234;28;20490;-78
2022/01/27 13:33:39;;;;;;;12.57;2.20;;;9.50;99.90;;;;;;5044989;28;20265;-78
2022/01/27 13:36:08;;;;;;;27.42;2.60;;;9.40;99.90;;;;;;5029068;28;20474;-78
2022/01/27 13:38:49;;;;;;;14.20;2.60;;;9.40;99.90;;;;;;5047626;28;20084;-77
2022/01/27 13:41:24;;;;;;;36.90;3.58;;;9.40;99.90;;;;;;5031014;28;20052;-77
2022/01/27 13:44:06;;;;;;;16.17;2.33;;;9.30;99.90;;;;;;5047154;28;20033;-77
2022/01/27 13:46:35;;;;;;;18.38;2.63;;;9.30;99.90;;;;;;5046620;28;20065;-77
2022/01/27 13:49:30;;;;;;;19.05;2.58;;;9.40;99.90;;;;;;5028490;28;20060;-77
2022/01/27 13:51:59;;;;;;;15.20;2.08;;;9.30;99.90;;;;;;5046682;28;20060;-77